Time;durP1;ratioP1;P1;durP2;ratioP2;P2;SDS_P1;SDS_P2;PMS_P1;PMS_P2;Temp;Humidity;BMP_temperature;BMP_pressure;BME280_temperature;BME280_humidity;BME280_pressure;Samples;Min_cycle;Max_cycle;Signal;HPM_P1;HPM_P2
2023/10/09 00:01:01;;;;;;;;;;;13.60;99.90;;;;;;5023325;28;19929;-90
2023/10/09 00:03:27;;;;;;;;;;;13.60;99.90;;;;;;5024934;28;19971;-89
2023/10/09 00:05:53;;;;;;;;;;;13.60;99.90;;;;;;5012653;28;20452;-89
2023/10/09 00:08:21;;;;;;;;;;;13.60;99.90;;;;;;5018255;28;19978;-89
2023/10/09 00:10:54;;;;;;;;;;;13.60;99.90;;;;;;5026396;28;19937;-89
2023/10/09 00:13:23;;;;;;;;;;;13.60;99.90;;;;;;5030101;28;19929;-89
2023/10/09 00:15:52;;;;;;;;;;;13.60;99.90;;;;;;5022673;28;19965;-90
2023/10/09 00:18:23;;;;;;;;;;;13.60;99.90;;;;;;5021221;28;19925;-91
2023/10/09 00:20:54;;;;;;;;;;;13.60;99.90;;;;;;5026565;28;19952;-90
2023/10/09 00:23:20;;;;;;;;;;;13.60;99.90;;;;;;5023036;28;19940;-90
2023/10/09 00:28:36;;;;;;;;;;;13.50;99.90;;;;;;5020682;28;19960;-88
2023/10/09 00:31:07;;;;;;;;;;;13.50;99.90;;;;;;5023183;28;19983;-89
2023/10/09 00:33:33;;;;;;;;;;;13.50;99.90;;;;;;5027703;28;19925;-89
2023/10/09 00:36:19;;;;;;;;;;;13.50;99.90;;;;;;5020806;28;20405;-89
2023/10/09 00:38:51;;;;;;;;;;;13.50;99.90;;;;;;5017976;28;19933;-89
2023/10/09 00:41:20;;;;;;;;;;;13.50;99.90;;;;;;5024952;28;19925;-89
2023/10/09 00:43:49;;;;;;;;;;;13.50;99.90;;;;;;5026301;28;19932;-90
2023/10/09 00:48:47;;;;;;;;;;;13.40;99.90;;;;;;5021412;28;19936;-89
2023/10/09 00:51:17;;;;;;;;;;;13.40;99.90;;;;;;5023177;28;19957;-90
2023/10/09 00:53:58;;;;;;;;;;;13.40;99.90;;;;;;5024640;28;20475;-89
2023/10/09 00:59:14;;;;;;;;;;;13.40;99.90;;;;;;5022984;28;19944;-89
2023/10/09 01:01:45;;;;;;;;;;;13.40;99.90;;;;;;5024185;28;19974;-90
2023/10/09 01:04:11;;;;;;;;;;;13.40;99.90;;;;;;5017864;28;19973;-90
2023/10/09 01:06:44;;;;;;;;;;;13.40;99.90;;;;;;5024425;28;19935;-89
2023/10/09 01:09:20;;;;;;;;;;;13.40;99.90;;;;;;5027299;28;19937;-89
2023/10/09 01:12:03;;;;;;;;;;;13.30;99.90;;;;;;5024816;28;19925;-90
2023/10/09 01:14:30;;;;;;;;;;;13.30;99.90;;;;;;5024414;28;20027;-88
2023/10/09 01:16:56;;;;;;;;;;;13.40;99.90;;;;;;5029262;28;20300;-89
2023/10/09 01:19:26;;;;;;;;;;;13.30;99.90;;;;;;5027707;28;19940;-89
2023/10/09 01:21:52;;;;;;;;;;;13.40;99.90;;;;;;5024622;28;19934;-89
2023/10/09 01:24:22;;;;;;;;;;;13.40;99.90;;;;;;5027828;28;19993;-90
2023/10/09 01:26:49;;;;;;;;;;;13.40;99.90;;;;;;5029181;28;19932;-89
2023/10/09 01:29:17;;;;;;;;;;;13.40;99.90;;;;;;5030933;28;19926;-89
2023/10/09 01:31:52;;;;;;;;;;;13.30;99.90;;;;;;5023998;28;19931;-89
2023/10/09 01:34:19;;;;;;;;;;;13.30;99.90;;;;;;5025087;28;19991;-90
2023/10/09 01:36:48;;;;;;;;;;;13.30;99.90;;;;;;5024993;28;19928;-89
2023/10/09 01:39:23;;;;;;;;;;;13.30;99.90;;;;;;5030727;28;19925;-89
2023/10/09 01:41:58;;;;;;;;;;;13.30;99.90;;;;;;5024083;28;19968;-90
2023/10/09 01:44:29;;;;;;;;;;;13.30;99.90;;;;;;5022155;28;19933;-89
2023/10/09 01:46:57;;;;;;;;;;;13.30;99.90;;;;;;5018682;28;20048;-89
2023/10/09 01:49:29;;;;;;;;;;;13.30;99.90;;;;;;5019977;28;19929;-89
2023/10/09 01:51:58;;;;;;;;;;;13.30;99.90;;;;;;5019829;28;19926;-89
2023/10/09 01:54:36;;;;;;;;;;;13.30;99.90;;;;;;5021111;28;19929;-90
2023/10/09 01:57:05;;;;;;;;;;;13.30;99.90;;;;;;5022847;28;19933;-90
2023/10/09 01:59:37;;;;;;;;;;;13.30;99.90;;;;;;5026593;28;20573;-90
2023/10/09 02:02:14;;;;;;;;;;;13.30;99.90;;;;;;5019644;28;19930;-90
2023/10/09 02:04:42;;;;;;;;;;;13.30;99.90;;;;;;5021264;28;19932;-90
2023/10/09 02:07:08;;;;;;;;;;;13.30;99.90;;;;;;5024342;28;19929;-89
2023/10/09 02:09:34;;;;;;;;;;;13.30;99.90;;;;;;5021683;28;19965;-89
2023/10/09 02:12:00;;;;;;;;;;;13.30;99.90;;;;;;5021777;28;19972;-89
2023/10/09 02:14:27;;;;;;;;;;;13.30;99.90;;;;;;5028674;28;19926;-89
2023/10/09 02:17:17;;;;;;;;;;;13.30;99.90;;;;;;5019594;28;19930;-89
2023/10/09 02:19:49;;;;;;;;;;;13.30;99.90;;;;;;5022761;28;19985;-89
2023/10/09 02:22:15;;;;;;;;;;;13.40;99.90;;;;;;5018486;28;19926;-89
2023/10/09 02:24:49;;;;;;;;;;;13.40;99.90;;;;;;5028903;28;19996;-89
2023/10/09 02:30:09;;;;;;;;;;;13.40;99.90;;;;;;5014898;28;19936;-89
2023/10/09 02:32:35;;;;;;;;;;;13.40;99.90;;;;;;5023925;28;19926;-89
2023/10/09 02:35:09;;;;;;;;;;;13.40;99.90;;;;;;5023590;28;19976;-89
2023/10/09 02:37:37;;;;;;;;;;;13.40;99.90;;;;;;5024203;28;20292;-89
2023/10/09 02:40:08;;;;;;;;;;;13.40;99.90;;;;;;5023919;28;19933;-89
2023/10/09 02:42:34;;;;;;;;;;;13.40;99.90;;;;;;5021669;28;19929;-90
2023/10/09 02:45:00;;;;;;;;;;;13.40;99.90;;;;;;5023860;28;19925;-89
2023/10/09 02:47:38;;;;;;;;;;;13.40;99.90;;;;;;5028141;28;19926;-89
2023/10/09 02:50:19;;;;;;;;;;;13.40;99.90;;;;;;5023014;28;20012;-89
2023/10/09 02:52:47;;;;;;;;;;;13.40;99.90;;;;;;5021896;28;19926;-89
2023/10/09 02:55:24;;;;;;;;;;;13.40;99.90;;;;;;5023382;28;19933;-89
2023/10/09 02:58:04;;;;;;;;;;;13.40;99.90;;;;;;5025428;28;19964;-89
2023/10/09 03:00:31;;;;;;;;;;;13.50;99.90;;;;;;5026847;28;20000;-89
2023/10/09 03:02:58;;;;;;;;;;;13.50;99.90;;;;;;5028958;28;19968;-89
2023/10/09 03:05:27;;;;;;;;;;;13.50;99.90;;;;;;5023420;28;19928;-89
2023/10/09 03:07:56;;;;;;;;;;;13.60;99.90;;;;;;5027834;28;20000;-89
2023/10/09 03:10:22;;;;;;;;;;;13.60;99.90;;;;;;5031356;28;19933;-88
2023/10/09 03:12:52;;;;;;;;;;;13.70;99.90;;;;;;5024970;28;19932;-90
2023/10/09 03:15:21;;;;;;;;;;;13.70;99.90;;;;;;5030268;28;19987;-89
2023/10/09 03:17:50;;;;;;;;;;;13.80;99.90;;;;;;5032775;28;19965;-89
2023/10/09 03:20:17;;;;;;;;;;;13.80;99.90;;;;;;5032280;28;19961;-89
2023/10/09 03:22:44;;;;;;;;;;;13.80;99.90;;;;;;5028126;28;19972;-89
2023/10/09 03:25:14;;;;;;;;;;;13.90;99.90;;;;;;5028279;28;19983;-90
2023/10/09 03:27:46;;;;;;;;;;;13.90;99.90;;;;;;5028836;28;20321;-89
2023/10/09 03:30:22;;;;;;;;;;;13.90;99.90;;;;;;5029513;28;19929;-90
2023/10/09 03:32:51;;;;;;;;;;;14.00;99.90;;;;;;5025412;28;19929;-90
2023/10/09 03:35:26;;;;;;;;;;;14.00;99.90;;;;;;5025669;28;20400;-90
2023/10/09 03:37:56;;;;;;;;;;;14.10;99.90;;;;;;5024364;28;19929;-89
2023/10/09 03:40:23;;;;;;;;;;;14.20;99.90;;;;;;5030569;28;20010;-89
2023/10/09 03:42:48;;;;;;;;;;;14.20;99.90;;;;;;5028093;28;20246;-89
2023/10/09 03:45:27;;;;;;;;;;;14.30;99.90;;;;;;5030087;28;19935;-89
2023/10/09 03:47:58;;;;;;;;;;;14.40;99.90;;;;;;5018543;28;19956;-89
2023/10/09 03:50:26;;;;;;;;;;;14.40;99.90;;;;;;5028454;28;20660;-88
2023/10/09 03:52:52;;;;;;;;;;;14.50;99.90;;;;;;5023884;28;19979;-88
2023/10/09 03:55:19;;;;;;;;;;;14.60;99.90;;;;;;5022992;28;20389;-88
2023/10/09 03:57:45;;;;;;;;;;;14.60;99.90;;;;;;5023581;28;19925;-89
2023/10/09 04:00:27;;;;;;;;;;;14.70;99.90;;;;;;5024980;28;19972;-89
2023/10/09 04:02:52;;;;;;;;;;;14.70;99.90;;;;;;5027035;28;20350;-89
2023/10/09 04:05:18;;;;;;;;;;;14.70;99.90;;;;;;5019900;28;19948;-88
2023/10/09 04:07:43;;;;;;;;;;;14.70;99.90;;;;;;5024350;28;19985;-89
2023/10/09 04:12:56;;;;;;;;;;;14.80;99.90;;;;;;5024270;28;20463;-89
2023/10/09 04:15:23;;;;;;;;;;;14.80;99.90;;;;;;5025892;28;19936;-87
2023/10/09 04:17:51;;;;;;;;;;;14.90;99.90;;;;;;5005991;28;19977;-88
2023/10/09 04:22:59;;;;;;;;;;;15.00;99.90;;;;;;5029124;28;20387;-88
2023/10/09 04:25:25;;;;;;;;;;;15.00;99.90;;;;;;5022071;28;19932;-88
2023/10/09 04:28:08;;;;;;;;;;;15.00;99.90;;;;;;5011705;28;19925;-90
2023/10/09 04:30:42;;;;;;;;;;;15.00;99.90;;;;;;5019925;28;19956;-89
2023/10/09 04:33:27;;;;;;;;;;;15.00;99.90;;;;;;5020210;28;19930;-88
2023/10/09 04:36:16;;;;;;;;;;;15.10;99.90;;;;;;5019411;28;19963;-90
2023/10/09 04:38:52;;;;;;;;;;;15.10;99.90;;;;;;5025769;28;19961;-88
2023/10/09 04:41:27;;;;;;;;;;;15.10;99.90;;;;;;5024649;28;20403;-89
2023/10/09 04:44:03;;;;;;;;;;;15.10;99.90;;;;;;5019029;28;19929;-90
2023/10/09 04:46:43;;;;;;;;;;;15.10;99.90;;;;;;5021847;28;19936;-90
2023/10/09 04:49:27;;;;;;;;;;;15.20;99.90;;;;;;5032767;28;19921;-90
2023/10/09 04:52:18;;;;;;;;;;;15.20;99.90;;;;;;5032284;28;20016;-88
2023/10/09 04:57:29;;;;;;;;;;;15.20;99.90;;;;;;5035909;28;19933;-88
2023/10/09 04:59:58;;;;;;;;;;;15.20;99.90;;;;;;5032861;28;19936;-89
2023/10/09 05:02:36;;;;;;;;;;;15.20;99.90;;;;;;5033004;28;19929;-90
2023/10/09 05:05:47;;;;;;;;;;;15.20;99.90;;;;;;5029426;28;19979;-89
2023/10/09 05:08:18;;;;;;;;;;;15.30;99.90;;;;;;5034627;28;19940;-90
2023/10/09 05:11:05;;;;;;;;;;;15.30;99.90;;;;;;5030065;28;19934;-89
2023/10/09 05:16:05;;;;;;;;;;;15.30;99.90;;;;;;5040795;28;19936;-89
2023/10/09 05:18:37;;;;;;;;;;;15.30;99.90;;;;;;5029754;28;19925;-90
2023/10/09 05:21:45;;;;;;;;;;;15.30;99.90;;;;;;5025753;28;21147;-89
2023/10/09 05:29:34;;;;;;;;;;;15.30;99.90;;;;;;5029657;28;20023;-90
2023/10/09 05:32:48;;;;;;;;;;;15.30;99.90;;;;;;5043315;28;19933;-89
2023/10/09 05:37:32;;;;;;;;;;;15.40;99.90;;;;;;5028154;28;19925;-89
2023/10/09 05:42:42;;;;;;;;;;;15.40;99.90;;;;;;5023367;28;19971;-91
2023/10/09 05:48:48;;;;;;;;;;;15.50;99.90;;;;;;5017720;28;19929;-89
2023/10/09 05:50:35;;;;;;;;;;;15.50;99.90;;;;;;5014680;28;19925;-88
2023/10/09 06:08:26;;;;;;;;;;;15.60;99.90;;;;;;5020461;28;19968;-89
2023/10/09 06:14:02;;;;;;;;;;;15.70;99.90;;;;;;5009533;28;19925;-90
2023/10/09 06:24:18;;;;;;;;;;;15.70;99.90;;;;;;5022447;28;20664;-89
2023/10/09 06:29:37;;;;;;;;;;;15.80;99.90;;;;;;5026769;28;19972;-92
2023/10/09 06:34:45;;;;;;;;;;;15.90;99.90;;;;;;5020311;28;20006;-90
2023/10/09 06:37:26;;;;;;;;;;;15.80;99.90;;;;;;5021838;28;19929;-92
2023/10/09 06:42:34;;;;;;;;;;;15.90;99.90;;;;;;5017781;28;19934;-93
2023/10/09 06:45:19;;;;;;;;;;;16.00;99.90;;;;;;5022162;28;19933;-95
2023/10/09 06:48:07;;;;;;;;;;;16.00;99.90;;;;;;5019037;28;19925;-90
2023/10/09 06:54:09;;;;;;;;;;;16.10;99.90;;;;;;5032072;28;19925;-91
2023/10/09 06:58:55;;;;;;;;;;;16.20;99.90;;;;;;5018666;28;19929;-90
2023/10/09 07:06:50;;;;;;;;;;;16.20;99.90;;;;;;5028856;28;19925;-93
2023/10/09 07:09:19;;;;;;;;;;;16.30;99.90;;;;;;5027485;28;19994;-95
2023/10/09 07:17:04;;;;;;;;;;;16.30;99.90;;;;;;5023743;28;19967;-93
2023/10/09 07:22:16;;;;;;;;;;;16.30;99.90;;;;;;5016940;28;20035;-91
2023/10/09 07:24:49;;;;;;;;;;;16.30;99.90;;;;;;5023154;28;19925;-91
2023/10/09 07:27:43;;;;;;;;;;;16.40;99.90;;;;;;5030740;28;19925;-91
2023/10/09 07:30:35;;;;;;;;;;;16.40;99.90;;;;;;5031096;28;20786;-91
2023/10/09 07:32:52;;;;;;;;;;;16.40;99.90;;;;;;5032426;28;19933;-90
2023/10/09 07:35:46;;;;;;;;;;;16.40;99.90;;;;;;5032888;28;19929;-91
2023/10/09 07:38:03;;;;;;;;;;;16.50;99.90;;;;;;5026888;28;19951;-92
2023/10/09 07:40:31;;;;;;;;;;;16.50;99.90;;;;;;5025204;28;19985;-91
2023/10/09 07:43:04;;;;;;;;;;;16.50;99.90;;;;;;5020273;28;19956;-90
2023/10/09 07:48:05;;;;;;;;;;;16.50;99.90;;;;;;5027940;28;19925;-91
2023/10/09 07:50:49;;;;;;;;;;;16.50;99.90;;;;;;5029688;28;20330;-90
2023/10/09 07:53:17;;;;;;;;;;;16.60;99.90;;;;;;5035623;28;19939;-89
2023/10/09 07:55:55;;;;;;;;;;;16.70;99.90;;;;;;5024050;28;19925;-91
2023/10/09 07:58:25;;;;;;;;;;;16.60;99.90;;;;;;5020512;28;19972;-90
2023/10/09 08:04:02;;;;;;;;;;;16.70;99.90;;;;;;5024736;28;20464;-90
2023/10/09 08:06:42;;;;;;;;;;;16.70;99.90;;;;;;5036858;28;19925;-88
2023/10/09 08:17:11;;;;;;;;;;;16.90;99.90;;;;;;5024101;28;19933;-90
2023/10/09 08:19:51;;;;;;;;;;;16.90;99.90;;;;;;5025148;28;19925;-90
2023/10/09 08:22:42;;;;;;;;;;;17.00;99.90;;;;;;5019858;28;19933;-90
2023/10/09 08:25:03;;;;;;;;;;;17.00;99.90;;;;;;5022137;28;19951;-87
2023/10/09 08:33:00;;;;;;;;;;;17.10;99.90;;;;;;5031002;28;19975;-86
2023/10/09 08:35:29;;;;;;;;;;;17.20;99.90;;;;;;5024202;28;19932;-90
2023/10/09 08:37:58;;;;;;;;;;;17.20;99.90;;;;;;5031654;28;19940;-87
2023/10/09 08:40:33;;;;;;;;;;;17.10;99.90;;;;;;5031790;28;19925;-88
2023/10/09 08:43:08;;;;;;;;;;;17.20;99.90;;;;;;5026529;28;19998;-87
2023/10/09 08:45:39;;;;;;;;;;;17.20;99.90;;;;;;5033260;28;19933;-87
2023/10/09 08:48:06;;;;;;;;;;;17.20;99.90;;;;;;5029167;28;19932;-88
2023/10/09 08:50:32;;;;;;;;;;;17.20;99.90;;;;;;4998179;28;19925;-87
2023/10/09 08:52:57;;;;;;;;;;;17.20;99.90;;;;;;5014320;28;19935;-85
2023/10/09 08:55:23;;;;;;;;;;;17.30;99.90;;;;;;5030951;28;19968;-87
2023/10/09 08:57:49;;;;;;;;;;;17.20;99.90;;;;;;5027175;28;19925;-86
2023/10/09 09:00:23;;;;;;;;;;;17.20;99.90;;;;;;5031415;28;20404;-85
2023/10/09 09:02:53;;;;;;;;;;;17.30;99.90;;;;;;5031976;28;19934;-87
2023/10/09 09:05:22;;;;;;;;;;;17.20;99.90;;;;;;5019855;28;19933;-86
2023/10/09 09:07:48;;;;;;;;;;;17.30;99.90;;;;;;5026822;28;19925;-86
2023/10/09 09:10:35;;;;;;;;;;;17.30;99.90;;;;;;5033156;28;20262;-85
2023/10/09 09:13:04;;;;;;;;;;;17.30;99.90;;;;;;5035801;28;20015;-86
2023/10/09 09:15:30;;;;;;;;;;;17.30;99.90;;;;;;5012285;28;19937;-85
2023/10/09 09:18:11;;;;;;;;;;;17.30;99.90;;;;;;5030734;28;20182;-87
2023/10/09 09:20:40;;;;;;;;;;;17.20;99.90;;;;;;5026011;28;19961;-86
2023/10/09 09:23:09;;;;;;;;;;;17.30;99.90;;;;;;5028275;28;19925;-85
2023/10/09 09:25:44;;;;;;;;;;;17.20;99.90;;;;;;5019087;28;19961;-85
2023/10/09 09:28:12;;;;;;;;;;;17.20;99.90;;;;;;5027992;28;20066;-86
2023/10/09 09:30:40;;;;;;;;;;;17.20;99.90;;;;;;5040809;28;19925;-85
2023/10/09 09:33:20;;;;;;;;;;;17.20;99.90;;;;;;5014917;28;19925;-86
2023/10/09 09:35:57;;;;;;;;;;;17.10;99.90;;;;;;5023754;28;19926;-84
2023/10/09 09:38:25;;;;;;;;;;;17.10;99.90;;;;;;5025149;28;19936;-85
2023/10/09 09:40:53;;;;;;;;;;;17.10;99.90;;;;;;5013414;28;20397;-85
2023/10/09 09:43:23;;;;;;;;;;;17.20;99.90;;;;;;5032332;28;20214;-85
2023/10/09 09:45:50;;;;;;;;;;;17.20;99.90;;;;;;5031586;28;20399;-85
2023/10/09 09:48:16;;;;;;;;;;;17.20;99.90;;;;;;5027391;28;19979;-85
2023/10/09 09:50:47;;;;;;;;;;;17.20;99.90;;;;;;5028254;28;19935;-86
2023/10/09 09:53:19;;;;;;;;;;;17.20;99.90;;;;;;5025751;28;19952;-86
2023/10/09 09:55:51;;;;;;;;;;;17.20;99.90;;;;;;5004033;28;20055;-84
2023/10/09 09:58:23;;;;;;;;;;;17.20;99.90;;;;;;5028853;28;19925;-85
2023/10/09 10:00:53;;;;;;;;;;;17.10;99.90;;;;;;5027540;28;19933;-85
2023/10/09 10:03:18;;;;;;;;;;;17.10;99.90;;;;;;5032822;28;19929;-86
2023/10/09 10:05:48;;;;;;;;;;;17.10;99.90;;;;;;5015039;28;19925;-84
2023/10/09 10:08:19;;;;;;;;;;;17.20;99.90;;;;;;5026225;28;20344;-86
2023/10/09 10:10:58;;;;;;;;;;;17.20;99.90;;;;;;5026904;28;20017;-83
2023/10/09 10:13:44;;;;;;;;;;;17.20;99.90;;;;;;5027422;28;19929;-83
2023/10/09 10:16:22;;;;;;;;;;;17.40;99.90;;;;;;5023993;28;19926;-84
2023/10/09 10:19:07;;;;;;;;;;;17.50;99.90;;;;;;5027852;28;19932;-84
2023/10/09 10:21:41;;;;;;;;;;;17.60;99.90;;;;;;5025540;28;19941;-85
2023/10/09 10:24:51;;;;;;;;;;;17.80;99.90;;;;;;5025760;28;20012;-85
2023/10/09 10:27:26;;;;;;;;;;;17.90;99.90;;;;;;5030038;28;19952;-85
2023/10/09 10:30:13;;;;;;;;;;;18.00;99.90;;;;;;5009014;28;19925;-85
2023/10/09 10:32:51;;;;;;;;;;;18.10;99.90;;;;;;5024268;28;19930;-84
2023/10/09 10:35:20;;;;;;;;;;;18.20;99.90;;;;;;5018810;28;19940;-85
2023/10/09 10:38:00;;;;;;;;;;;18.30;99.90;;;;;;5027944;28;19925;-85
2023/10/09 10:40:41;;;;;;;;;;;18.30;99.90;;;;;;5021795;28;19980;-86
2023/10/09 10:43:32;;;;;;;;;;;18.40;99.90;;;;;;5031188;28;20335;-84
2023/10/09 10:46:02;;;;;;;;;;;18.40;99.90;;;;;;5033343;28;19925;-85
2023/10/09 10:48:37;;;;;;;;;;;18.40;99.90;;;;;;5026960;28;19924;-83
2023/10/09 10:51:05;;;;;;;;;;;18.40;99.90;;;;;;5039221;28;19929;-84
2023/10/09 10:53:49;;;;;;;;;;;18.50;99.90;;;;;;5032012;28;19925;-83
2023/10/09 10:58:53;;;;;;;;;;;18.40;99.90;;;;;;5038007;28;19931;-85
2023/10/09 11:01:22;;;;;;;;;;;18.40;99.90;;;;;;5035837;28;19932;-83
2023/10/09 11:03:55;;;;;;;;;;;18.40;99.90;;;;;;5031468;28;20511;-85
2023/10/09 11:06:37;;;;;;;;;;;18.50;99.90;;;;;;5029837;28;19992;-84
2023/10/09 11:09:23;;;;;;;;;;;18.50;99.90;;;;;;5041013;28;19929;-84
2023/10/09 11:11:50;;;;;;;;;;;18.50;99.90;;;;;;5042212;28;20312;-84
2023/10/09 11:14:15;;;;;;;;;;;18.50;99.90;;;;;;5030407;28;20008;-84
2023/10/09 11:16:50;;;;;;;;;;;18.60;99.90;;;;;;5023516;28;19983;-83
2023/10/09 11:19:28;;;;;;;;;;;18.60;99.90;;;;;;5043210;28;19933;-84
2023/10/09 11:24:35;;;;;;;;;;;18.60;99.90;;;;;;5030575;28;19933;-85
2023/10/09 11:27:05;;;;;;;;;;;18.60;99.90;;;;;;5028319;28;20358;-83
2023/10/09 11:32:18;;;;;;;;;;;18.60;99.90;;;;;;5034345;28;19948;-84
2023/10/09 11:34:51;;;;;;;;;;;18.70;99.90;;;;;;5018055;28;19933;-84
2023/10/09 11:37:38;;;;;;;;;;;18.80;99.90;;;;;;5020853;28;19925;-85
2023/10/09 11:40:08;;;;;;;;;;;18.80;99.90;;;;;;5022167;28;19991;-84
2023/10/09 11:42:49;;;;;;;;;;;19.00;99.90;;;;;;5018990;28;19948;-84
2023/10/09 11:45:28;;;;;;;;;;;19.10;99.90;;;;;;5033339;28;19925;-84
2023/10/09 11:47:58;;;;;;;;;;;19.30;99.90;;;;;;5034654;28;19939;-85
2023/10/09 11:53:09;;;;;;;;;;;19.50;99.90;;;;;;5063047;22;19940;-85
2023/10/09 11:55:37;;;;;;;;;;;19.40;99.90;;;;;;5006032;28;19924;-82
2023/10/09 11:58:04;;;;;;;;;;;19.40;99.90;;;;;;5042743;28;19983;-84
2023/10/09 12:00:32;;;;;;;;;;;19.30;99.90;;;;;;5009658;28;19969;-88
2023/10/09 12:03:05;;;;;;;;;;;19.20;99.90;;;;;;5023107;28;19991;-87
2023/10/09 12:05:34;;;;;;;;;;;19.10;99.90;;;;;;5008326;28;19960;-88
2023/10/09 12:08:01;;;;;;;;;;;19.00;99.90;;;;;;5012725;28;19925;-87
2023/10/09 12:10:27;;;;;;;;;;;19.00;99.90;;;;;;5046297;28;20019;-86
2023/10/09 12:12:53;;;;;;;;;;;18.90;99.90;;;;;;5030860;28;19975;-86
2023/10/09 12:15:19;;;;;;;;;;;18.90;99.90;;;;;;5014021;28;19920;-86
2023/10/09 12:17:47;;;;;;;;;;;18.90;99.90;;;;;;5047132;28;19925;-87
2023/10/09 12:20:31;;;;;;;;;;;18.80;99.90;;;;;;5029391;28;19925;-87
2023/10/09 12:22:59;;;;;;;;;;;18.90;99.90;;;;;;5030873;28;19980;-87
2023/10/09 12:25:25;;;;;;;;;;;18.90;99.90;;;;;;5030088;28;20292;-87
2023/10/09 12:27:57;;;;;;;;;;;18.90;99.90;;;;;;5029964;28;19925;-86
2023/10/09 12:30:28;;;;;;;;;;;18.90;99.90;;;;;;5030917;28;20300;-88
2023/10/09 12:32:54;;;;;;;;;;;19.00;99.90;;;;;;5010293;28;19924;-87
2023/10/09 12:35:20;;;;;;;;;;;18.90;99.90;;;;;;5015157;28;20328;-86
2023/10/09 12:37:47;;;;;;;;;;;18.80;99.90;;;;;;5041029;28;19924;-88
2023/10/09 12:40:12;;;;;;;;;;;18.70;99.90;;;;;;5030597;28;19932;-85
2023/10/09 12:42:38;;;;;;;;;;;18.80;99.90;;;;;;4994000;28;19925;-85
2023/10/09 12:45:08;;;;;;;;;;;18.70;99.90;;;;;;4993965;28;19928;-85
2023/10/09 12:47:37;;;;;;;;;;;18.70;99.90;;;;;;5015943;28;19935;-84
2023/10/09 12:50:09;;;;;;;;;;;18.70;99.90;;;;;;5014385;28;19925;-85
2023/10/09 12:52:37;;;;;;;;;;;18.70;99.90;;;;;;5017879;28;19988;-85
2023/10/09 12:55:07;;;;;;;;;;;18.70;99.90;;;;;;4994619;28;19984;-84
2023/10/09 12:57:36;;;;;;;;;;;18.80;99.90;;;;;;5003190;28;19978;-84
2023/10/09 13:00:10;;;;;;;;;;;18.90;99.90;;;;;;5013345;28;19950;-85
2023/10/09 13:02:36;;;;;;;;;;;18.90;99.90;;;;;;5028805;28;19925;-85
2023/10/09 13:05:04;;;;;;;;;;;19.00;99.90;;;;;;5023370;28;19936;-84
2023/10/09 13:07:30;;;;;;;;;;;19.20;99.90;;;;;;5007706;28;19935;-86
2023/10/09 13:10:08;;;;;;;;;;;19.30;99.90;;;;;;5025891;28;19929;-85
2023/10/09 13:12:38;;;;;;;;;;;19.40;99.90;;;;;;5011977;28;19929;-84
2023/10/09 13:15:08;;;;;;;;;;;19.50;99.90;;;;;;5045483;28;19988;-86
2023/10/09 13:17:34;;;;;;;;;;;19.60;99.90;;;;;;5017927;28;20039;-83
2023/10/09 13:19:59;;;;;;;;;;;19.70;99.90;;;;;;5019362;28;20298;-83
2023/10/09 13:22:25;;;;;;;;;;;19.80;99.90;;;;;;5023513;28;19932;-86
2023/10/09 13:24:52;;;;;;;;;;;19.70;99.90;;;;;;5021563;28;19932;-84
2023/10/09 13:27:21;;;;;;;;;;;19.70;99.90;;;;;;5014583;28;19925;-85
2023/10/09 13:29:47;;;;;;;;;;;19.70;99.90;;;;;;5010207;28;19979;-84
2023/10/09 13:32:14;;;;;;;;;;;19.60;99.90;;;;;;5020527;28;20315;-84
2023/10/09 13:34:44;;;;;;;;;;;19.50;99.90;;;;;;5029070;28;19925;-85
2023/10/09 13:37:13;;;;;;;;;;;19.40;99.90;;;;;;5023076;28;19933;-84
2023/10/09 13:39:51;;;;;;;;;;;19.30;99.90;;;;;;5008481;28;19933;-83
2023/10/09 13:42:17;;;;;;;;;;;19.20;99.90;;;;;;5004561;28;19925;-84
2023/10/09 13:44:43;;;;;;;;;;;19.10;99.90;;;;;;5009811;28;19929;-84
2023/10/09 13:47:19;;;;;;;;;;;19.10;99.90;;;;;;5007421;28;19932;-83
2023/10/09 13:49:45;;;;;;;;;;;19.10;99.90;;;;;;4996111;28;19933;-83
2023/10/09 13:52:17;;;;;;;;;;;19.10;99.90;;;;;;5012202;28;19928;-84
2023/10/09 13:54:47;;;;;;;;;;;19.10;99.90;;;;;;5007222;28;19967;-85
2023/10/09 13:57:14;;;;;;;;;;;19.10;99.90;;;;;;5007028;28;19932;-83
2023/10/09 13:59:43;;;;;;;;;;;19.00;99.90;;;;;;4993149;28;19929;-84
2023/10/09 14:02:09;;;;;;;;;;;19.00;99.90;;;;;;5044934;28;19928;-84
2023/10/09 14:04:35;;;;;;;;;;;19.00;99.90;;;;;;5022332;28;20387;-84
2023/10/09 14:07:05;;;;;;;;;;;18.90;99.90;;;;;;5027759;28;19937;-84
2023/10/09 14:09:31;;;;;;;;;;;18.90;99.90;;;;;;5005721;28;19925;-85
2023/10/09 14:12:06;;;;;;;;;;;18.90;99.90;;;;;;4996629;28;19964;-84
2023/10/09 14:14:48;;;;;;;;;;;18.90;99.90;;;;;;5021731;28;19925;-84
2023/10/09 14:17:25;;;;;;;;;;;18.80;99.90;;;;;;5020039;28;19929;-85
2023/10/09 14:20:25;;;;;;;;;;;18.80;99.90;;;;;;4984379;28;19929;-85
2023/10/09 14:22:42;;;;;;;;;;;18.80;99.90;;;;;;5007920;28;19936;-84
2023/10/09 14:25:14;;;;;;;;;;;18.80;99.90;;;;;;4979864;28;19930;-83
2023/10/09 14:27:40;;;;;;;;;;;18.80;99.90;;;;;;4999197;28;19929;-86
2023/10/09 14:30:12;;;;;;;;;;;18.80;99.90;;;;;;4994643;28;19937;-85
2023/10/09 14:32:44;;;;;;;;;;;18.80;99.90;;;;;;4989894;28;19956;-84
2023/10/09 14:35:15;;;;;;;;;;;18.80;99.90;;;;;;5018680;28;19961;-84
2023/10/09 14:37:41;;;;;;;;;;;18.80;99.90;;;;;;5014077;28;19926;-84
2023/10/09 14:40:12;;;;;;;;;;;18.80;99.90;;;;;;5047290;28;19968;-84
2023/10/09 14:42:44;;;;;;;;;;;18.90;99.90;;;;;;5010164;28;19981;-84
2023/10/09 14:45:15;;;;;;;;;;;18.90;99.90;;;;;;5000742;28;19929;-84
2023/10/09 14:47:41;;;;;;;;;;;18.90;99.90;;;;;;5006178;28;20439;-84
2023/10/09 14:50:09;;;;;;;;;;;18.80;99.90;;;;;;5044315;28;20427;-83
2023/10/09 14:52:38;;;;;;;;;;;18.70;99.90;;;;;;5015164;28;20452;-84
2023/10/09 14:55:05;;;;;;;;;;;18.60;99.90;;;;;;4993988;28;19925;-84
2023/10/09 14:57:33;;;;;;;;;;;18.60;99.90;;;;;;4970931;28;19937;-84
2023/10/09 14:59:59;;;;;;;;;;;18.50;99.90;;;;;;4986585;28;20043;-85
2023/10/09 15:02:25;;;;;;;;;;;18.50;99.90;;;;;;4912977;28;19933;-84
2023/10/09 15:04:52;;;;;;;;;;;18.50;99.90;;;;;;4979551;28;19925;-84
2023/10/09 15:07:18;;;;;;;;;;;18.50;99.90;;;;;;5037200;28;19991;-83
2023/10/09 15:09:44;;;;;;;;;;;18.50;99.90;;;;;;4998110;28;19929;-84
2023/10/09 15:12:11;;;;;;;;;;;18.50;99.90;;;;;;5024035;28;19971;-82
2023/10/09 15:14:37;;;;;;;;;;;18.50;99.90;;;;;;5019681;28;20394;-83
2023/10/09 15:17:02;;;;;;;;;;;18.50;99.90;;;;;;5011506;28;20011;-85
2023/10/09 15:19:31;;;;;;;;;;;18.50;99.90;;;;;;5027408;28;19971;-84
2023/10/09 15:21:58;;;;;;;;;;;18.50;99.90;;;;;;4993696;28;19936;-84
2023/10/09 15:24:25;;;;;;;;;;;18.50;99.90;;;;;;4994157;28;19952;-84
2023/10/09 15:26:57;;;;;;;;;;;18.40;99.90;;;;;;4989350;28;19925;-85
2023/10/09 15:29:30;;;;;;;;;;;18.40;99.90;;;;;;5001467;28;19980;-83
2023/10/09 15:32:14;;;;;;;;;;;18.40;99.90;;;;;;4987798;28;19926;-84
2023/10/09 15:34:41;;;;;;;;;;;18.40;99.90;;;;;;5012356;28;19976;-84
2023/10/09 15:37:07;;;;;;;;;;;18.30;99.90;;;;;;5006305;28;20383;-84
2023/10/09 15:39:36;;;;;;;;;;;18.30;99.90;;;;;;5007453;28;19955;-84
2023/10/09 15:42:06;;;;;;;;;;;18.30;99.90;;;;;;5007582;28;19925;-84
2023/10/09 15:44:38;;;;;;;;;;;18.30;99.90;;;;;;4988196;28;19925;-84
2023/10/09 15:47:08;;;;;;;;;;;18.30;99.90;;;;;;4996687;28;19930;-84
2023/10/09 15:49:34;;;;;;;;;;;18.30;99.90;;;;;;4987478;28;19925;-83
2023/10/09 15:52:01;;;;;;;;;;;18.30;99.90;;;;;;5025500;28;19929;-84
2023/10/09 15:54:28;;;;;;;;;;;18.20;99.90;;;;;;4994667;28;19926;-84
2023/10/09 15:56:55;;;;;;;;;;;18.20;99.90;;;;;;4991979;28;19925;-84
2023/10/09 15:59:21;;;;;;;;;;;18.20;99.90;;;;;;4996643;28;20377;-84
2023/10/09 16:01:46;;;;;;;;;;;18.10;99.90;;;;;;5011641;28;19933;-83
2023/10/09 16:04:12;;;;;;;;;;;18.10;99.90;;;;;;5014482;28;19997;-83
2023/10/09 16:06:41;;;;;;;;;;;18.00;99.90;;;;;;5028904;28;19936;-83
2023/10/09 16:09:11;;;;;;;;;;;18.00;99.90;;;;;;5012784;28;19929;-83
2023/10/09 16:11:39;;;;;;;;;;;17.90;99.90;;;;;;4987201;28;19934;-84
2023/10/09 16:14:09;;;;;;;;;;;17.90;99.90;;;;;;5009110;28;19933;-85
2023/10/09 16:16:41;;;;;;;;;;;17.80;99.90;;;;;;5008134;28;20065;-83
2023/10/09 16:19:07;;;;;;;;;;;17.70;99.90;;;;;;4992415;28;19932;-83
2023/10/09 16:21:34;;;;;;;;;;;17.60;99.90;;;;;;5002822;28;19925;-84
2023/10/09 16:24:00;;;;;;;;;;;17.60;99.90;;;;;;4986985;28;19948;-82
2023/10/09 16:26:28;;;;;;;;;;;17.50;99.90;;;;;;4968701;28;19934;-84
2023/10/09 16:28:53;;;;;;;;;;;17.50;99.90;;;;;;5002541;28;20027;-83
2023/10/09 16:31:19;;;;;;;;;;;17.50;99.90;;;;;;4995352;28;19996;-84
2023/10/09 16:33:45;;;;;;;;;;;17.40;99.90;;;;;;5016406;28;19932;-82
2023/10/09 16:36:11;;;;;;;;;;;17.40;99.90;;;;;;5000571;28;19936;-83
2023/10/09 16:38:39;;;;;;;;;;;17.30;99.90;;;;;;4985393;28;19933;-82